createdAt,value
2019-05-22T00:03:20.648Z,8.87
2019-05-22T00:08:23.415Z,9.01
2019-05-22T00:13:30.299Z,9.08
2019-05-22T00:18:33.519Z,9.01
2019-05-22T00:23:37.200Z,9.12
2019-05-22T00:28:40.157Z,9.26
2019-05-22T00:33:43.428Z,9.15
2019-05-22T00:38:45.954Z,9.11
2019-05-22T00:43:48.914Z,9.34
2019-05-22T00:48:51.911Z,9.39
2019-05-22T00:53:59.256Z,9.50
2019-05-22T00:59:20.018Z,9.47
2019-05-22T01:04:23.665Z,9.08
2019-05-22T01:09:31.110Z,8.82
2019-05-22T01:14:42.628Z,8.85
2019-05-22T01:19:39.053Z,8.61
2019-05-22T01:24:41.947Z,8.66
2019-05-22T01:29:45.427Z,8.72
2019-05-22T01:34:47.493Z,8.46
2019-05-22T01:39:57.384Z,8.32
2019-05-22T01:45:06.214Z,8.33
2019-05-22T01:50:06.087Z,8.22
2019-05-22T01:55:09.480Z,8.39
2019-05-22T02:00:13.021Z,8.36
2019-05-22T02:05:15.775Z,8.35
2019-05-22T02:10:23.896Z,8.48
2019-05-22T02:15:27.161Z,8.55
2019-05-22T02:20:30.725Z,8.56
2019-05-22T02:25:34.002Z,8.52
2019-05-22T02:30:37.884Z,8.24
2019-05-22T02:35:41.555Z,8.13
2019-05-22T02:40:45.502Z,8.26
2019-05-22T02:45:49.374Z,8.24
2019-05-22T02:50:51.893Z,8.14
2019-05-22T02:55:55.316Z,8.10
2019-05-22T03:01:02.283Z,8.04
2019-05-22T03:06:08.856Z,7.95
2019-05-22T03:11:14.595Z,7.94
2019-05-22T03:16:18.140Z,8.02
2019-05-22T03:21:20.407Z,8.09
2019-05-22T03:26:37.887Z,8.11
2019-05-22T03:31:41.289Z,8.24
2019-05-22T03:36:43.402Z,8.17
2019-05-22T03:41:45.341Z,8.06
2019-05-22T03:46:47.732Z,7.90
2019-05-22T03:51:52.117Z,7.96
2019-05-22T03:56:54.782Z,7.99
2019-05-22T04:01:57.318Z,8.20
2019-05-22T04:07:00.296Z,8.17
2019-05-22T04:12:02.329Z,8.27
2019-05-22T04:17:06.496Z,8.33
2019-05-22T04:22:09.341Z,8.20
2019-05-22T04:27:12.539Z,8.44
2019-05-22T04:32:25.360Z,8.86
2019-05-22T04:37:29.749Z,9.09
2019-05-22T04:42:32.817Z,9.16
2019-05-22T04:47:36.307Z,9.35
2019-05-22T04:52:38.390Z,9.65
2019-05-22T04:57:41.370Z,9.83
2019-05-22T05:02:43.535Z,9.84
2019-05-22T05:07:47.046Z,9.85
2019-05-22T05:12:49.176Z,10.01
2019-05-22T05:18:09.625Z,10.55
2019-05-22T05:24:00.709Z,10.92
2019-05-22T05:29:08.754Z,11.67
2019-05-22T05:34:17.394Z,12.04
2019-05-22T05:39:39.960Z,12.44
2019-05-22T05:50:09.914Z,12.93
2019-05-22T05:55:13.090Z,13.60
2019-05-22T06:05:47.556Z,14.39
2019-05-22T06:11:19.077Z,14.98
2019-05-22T06:16:44.078Z,15.30
2019-05-22T06:21:48.056Z,15.46
2019-05-22T06:26:56.717Z,15.66
2019-05-22T06:32:05.934Z,15.94
2019-05-22T06:37:31.515Z,16.39
2019-05-22T06:42:35.272Z,16.83
2019-05-22T06:47:38.538Z,16.25
2019-05-22T06:52:41.163Z,15.94
2019-05-22T06:57:43.195Z,16.19
2019-05-22T07:02:45.157Z,16.68
2019-05-22T07:07:47.781Z,17.25
2019-05-22T07:12:51.141Z,17.48
2019-05-22T07:17:54.419Z,17.53
2019-05-22T07:22:59.204Z,18.14
2019-05-22T07:28:07.698Z,18.40
2019-05-22T07:33:11.998Z,18.18
2019-05-22T07:38:17.456Z,18.41
2019-05-22T07:43:20.815Z,19.07
2019-05-22T07:48:24.771Z,19.29
2019-05-22T07:53:28.694Z,19.40
2019-05-22T07:58:34.519Z,19.50
2019-05-22T08:03:36.683Z,19.66
2019-05-22T08:08:42.080Z,20.17
2019-05-22T08:13:45.419Z,20.55
2019-05-22T08:18:47.701Z,20.90
2019-05-22T08:23:51.569Z,21.26
2019-05-22T08:28:54.099Z,20.44
2019-05-22T08:33:55.982Z,20.32
2019-05-22T08:38:59.604Z,20.02
2019-05-22T08:44:16.048Z,19.97
2019-05-22T08:49:08.203Z,19.81
2019-05-22T08:54:11.844Z,20.33
2019-05-22T08:59:19.479Z,20.20
2019-05-22T09:04:19.696Z,20.74
2019-05-22T09:09:24.716Z,21.32
2019-05-22T09:14:27.619Z,20.60
2019-05-22T09:19:32.032Z,21.18
2019-05-22T09:24:37.114Z,20.97
2019-05-22T09:29:39.381Z,20.68
2019-05-22T09:34:43.363Z,20.52
2019-05-22T09:39:46.072Z,20.56
2019-05-22T09:44:48.886Z,20.25
2019-05-22T09:49:51.194Z,20.52
2019-05-22T09:54:54.776Z,21.31
2019-05-22T09:59:57.118Z,21.59
2019-05-22T10:05:00.038Z,21.86
2019-05-22T10:10:04.824Z,22.23
2019-05-22T10:15:09.703Z,22.51
2019-05-22T10:20:12.067Z,21.98
2019-05-22T10:25:16.653Z,21.91
2019-05-22T10:30:22.100Z,22.22
2019-05-22T10:35:27.162Z,21.92
2019-05-22T10:40:29.423Z,21.50
2019-05-22T10:45:31.581Z,21.63
2019-05-22T10:50:33.960Z,21.78
2019-05-22T10:55:38.827Z,22.35
2019-05-22T11:00:40.970Z,22.71
2019-05-22T11:05:43.777Z,23.12
2019-05-22T11:10:46.728Z,23.65
2019-05-22T11:15:51.249Z,23.22
2019-05-22T11:20:53.409Z,22.43
2019-05-22T11:25:56.550Z,22.87
2019-05-22T11:30:59.648Z,23.17
2019-05-22T11:36:02.415Z,23.43
2019-05-22T11:41:09.391Z,23.70
2019-05-22T11:46:11.762Z,23.59
2019-05-22T11:51:14.973Z,23.66
2019-05-22T11:56:17.121Z,23.83
2019-05-22T12:01:20.742Z,23.96
2019-05-22T12:06:24.187Z,23.93
2019-05-22T12:11:27.422Z,24.15
2019-05-22T12:16:30.023Z,24.14
2019-05-22T12:21:32.491Z,24.00
2019-05-22T12:26:36.038Z,23.20
2019-05-22T12:31:38.329Z,22.91
2019-05-22T12:36:40.266Z,23.00
2019-05-22T12:41:42.664Z,23.00
2019-05-22T12:46:44.788Z,23.06
2019-05-22T12:51:47.813Z,23.38
2019-05-22T12:56:49.974Z,23.47
2019-05-22T13:01:53.018Z,23.61
2019-05-22T13:06:55.315Z,23.43
2019-05-22T13:11:57.271Z,23.45
2019-05-22T13:16:59.319Z,23.38
2019-05-22T13:22:04.192Z,23.29
2019-05-22T13:27:10.527Z,23.13
2019-05-22T13:32:13.785Z,23.15
2019-05-22T13:37:16.434Z,23.29
2019-05-22T13:42:18.900Z,23.32
2019-05-22T13:47:21.626Z,23.12
2019-05-22T13:52:23.472Z,23.25
2019-05-22T13:57:26.054Z,23.21
2019-05-22T14:02:28.506Z,22.71
2019-05-22T14:07:30.672Z,22.34
2019-05-22T14:12:32.750Z,22.26
2019-05-22T14:17:35.818Z,22.38
2019-05-22T14:22:38.123Z,22.21
2019-05-22T14:27:41.752Z,22.27
2019-05-22T14:32:44.299Z,21.74
2019-05-22T14:37:46.664Z,22.00
2019-05-22T14:42:49.803Z,22.09
2019-05-22T14:47:51.815Z,22.16
2019-05-22T14:52:53.806Z,22.12
2019-05-22T14:57:56.520Z,22.12
2019-05-22T15:02:59.574Z,21.97
2019-05-22T15:08:03.754Z,22.07
2019-05-22T15:13:07.396Z,22.09
2019-05-22T15:18:10.505Z,22.14
2019-05-22T15:23:12.738Z,22.26
2019-05-22T15:28:14.955Z,22.42
2019-05-22T15:33:17.093Z,22.21
2019-05-22T15:38:20.683Z,22.08
2019-05-22T15:43:25.725Z,22.17
2019-05-22T15:48:31.361Z,22.11
2019-05-22T15:53:36.421Z,22.14
2019-05-22T15:58:42.402Z,22.07
2019-05-22T16:03:46.408Z,22.08
2019-05-22T16:08:49.508Z,22.13
2019-05-22T16:13:54.018Z,22.02
2019-05-22T16:18:59.636Z,22.06
2019-05-22T16:24:04.139Z,21.84
2019-05-22T16:29:10.131Z,21.59
2019-05-22T16:34:17.205Z,21.41
2019-05-22T16:39:21.104Z,20.48
2019-05-22T16:44:24.132Z,20.11
2019-05-22T16:49:26.786Z,19.86
2019-05-22T16:54:29.978Z,19.65
2019-05-22T16:59:37.359Z,19.71
2019-05-22T17:04:39.508Z,19.59
2019-05-22T17:09:43.065Z,19.31
2019-05-22T17:14:48.409Z,18.75
2019-05-22T17:19:51.206Z,18.77
2019-05-22T17:24:55.818Z,18.39
2019-05-22T17:30:00.292Z,17.92
2019-05-22T17:35:03.647Z,17.73
2019-05-22T17:40:08.409Z,17.49
2019-05-22T17:45:15.060Z,17.62
2019-05-22T17:50:26.919Z,17.71
2019-05-22T17:55:27.858Z,17.54
2019-05-22T18:00:35.167Z,17.54
2019-05-22T18:05:40.499Z,17.13
2019-05-22T18:10:47.491Z,17.02
2019-05-22T18:15:50.278Z,16.78
2019-05-22T18:20:53.019Z,16.07
2019-05-22T18:25:55.718Z,16.19
2019-05-22T18:30:58.093Z,16.44
2019-05-22T18:36:02.000Z,16.62
2019-05-22T18:41:04.263Z,16.71
2019-05-22T18:46:06.991Z,16.77
2019-05-22T18:51:10.126Z,16.83
2019-05-22T18:56:13.050Z,16.86
2019-05-22T19:01:16.488Z,16.72
2019-05-22T19:06:29.683Z,16.00
2019-05-22T19:11:23.382Z,15.56
2019-05-22T19:16:25.665Z,14.87
2019-05-22T19:21:27.621Z,15.14
2019-05-22T19:26:30.082Z,15.11
2019-05-22T19:31:33.750Z,15.31
2019-05-22T19:36:36.567Z,15.57
2019-05-22T19:41:41.651Z,15.84
2019-05-22T19:46:43.899Z,15.56
2019-05-22T19:51:48.724Z,14.97
2019-05-22T19:56:51.581Z,15.03
2019-05-22T20:01:53.545Z,15.10
2019-05-22T20:06:56.450Z,15.14
2019-05-22T20:11:59.501Z,15.17
2019-05-22T20:17:01.770Z,15.27
2019-05-22T20:22:06.813Z,15.34
2019-05-22T20:27:10.136Z,15.47
2019-05-22T20:32:15.811Z,15.47
2019-05-22T20:37:18.308Z,15.37
2019-05-22T20:42:20.520Z,15.21
2019-05-22T20:47:24.993Z,15.33
2019-05-22T20:52:29.647Z,15.28
2019-05-22T20:57:33.178Z,15.21
2019-05-22T21:02:35.543Z,15.10
2019-05-22T21:07:42.278Z,14.90
2019-05-22T21:12:45.975Z,14.84
2019-05-22T21:17:49.445Z,14.37
2019-05-22T21:22:51.722Z,14.39
2019-05-22T21:27:54.645Z,14.58
2019-05-22T21:32:56.756Z,14.41
2019-05-22T21:37:59.943Z,14.45
2019-05-22T21:43:03.717Z,14.54
2019-05-22T21:48:06.222Z,14.34
2019-05-22T21:53:12.169Z,14.15
2019-05-22T21:58:14.793Z,14.14
2019-05-22T22:03:21.736Z,14.18
2019-05-22T22:08:24.619Z,14.20
2019-05-22T22:13:26.711Z,14.19
2019-05-22T22:18:29.683Z,13.91
2019-05-22T22:23:31.305Z,13.74
2019-05-22T22:28:33.998Z,13.89
2019-05-22T22:33:37.512Z,13.93
2019-05-22T22:38:42.893Z,13.15
2019-05-22T22:43:46.126Z,12.67
2019-05-22T22:48:51.754Z,12.54
2019-05-22T22:53:55.691Z,12.56
2019-05-22T22:58:57.833Z,12.22
2019-05-22T23:04:04.089Z,12.21
2019-05-22T23:09:07.989Z,12.39
2019-05-22T23:14:10.965Z,12.19
2019-05-22T23:19:17.756Z,12.21
2019-05-22T23:24:22.613Z,12.36
2019-05-22T23:29:24.826Z,12.59
2019-05-22T23:34:27.966Z,12.74
2019-05-22T23:39:32.219Z,12.49
2019-05-22T23:44:35.331Z,12.42
2019-05-22T23:49:39.199Z,12.41
2019-05-22T23:54:41.224Z,12.47
2019-05-22T23:59:45.309Z,12.70
